sensor_id;sensor_type;location;lat;lon;timestamp;temperature;humidity
20492;DHT22;10404;51.468;6.762;2023-04-09T00:00:34;9.70;70.40
20492;DHT22;10404;51.468;6.762;2023-04-09T00:03:00;9.70;70.50
20492;DHT22;10404;51.468;6.762;2023-04-09T00:05:26;9.70;70.50
20492;DHT22;10404;51.468;6.762;2023-04-09T00:07:52;9.60;70.50
20492;DHT22;10404;51.468;6.762;2023-04-09T00:10:17;9.60;70.50
20492;DHT22;10404;51.468;6.762;2023-04-09T00:12:43;9.60;70.50
20492;DHT22;10404;51.468;6.762;2023-04-09T00:15:08;9.60;70.50
20492;DHT22;10404;51.468;6.762;2023-04-09T00:17:34;9.60;70.50
20492;DHT22;10404;51.468;6.762;2023-04-09T00:20:00;9.50;70.50
20492;DHT22;10404;51.468;6.762;2023-04-09T00:22:26;9.50;70.60
20492;DHT22;10404;51.468;6.762;2023-04-09T00:24:52;9.50;70.60
20492;DHT22;10404;51.468;6.762;2023-04-09T00:27:18;9.40;70.60
20492;DHT22;10404;51.468;6.762;2023-04-09T00:29:44;9.40;70.70
20492;DHT22;10404;51.468;6.762;2023-04-09T00:32:09;9.40;70.60
20492;DHT22;10404;51.468;6.762;2023-04-09T00:34:35;9.40;70.60
20492;DHT22;10404;51.468;6.762;2023-04-09T00:37:01;9.40;70.60
20492;DHT22;10404;51.468;6.762;2023-04-09T00:39:27;9.40;70.70
20492;DHT22;10404;51.468;6.762;2023-04-09T00:41:56;9.30;70.70
20492;DHT22;10404;51.468;6.762;2023-04-09T00:44:23;9.20;70.70
20492;DHT22;10404;51.468;6.762;2023-04-09T00:46:49;9.20;70.80
20492;DHT22;10404;51.468;6.762;2023-04-09T00:49:15;9.20;70.80
20492;DHT22;10404;51.468;6.762;2023-04-09T00:51:41;9.20;70.80
20492;DHT22;10404;51.468;6.762;2023-04-09T00:54:06;9.20;70.90
20492;DHT22;10404;51.468;6.762;2023-04-09T00:56:32;9.20;70.80
20492;DHT22;10404;51.468;6.762;2023-04-09T00:58:58;9.10;70.80
20492;DHT22;10404;51.468;6.762;2023-04-09T01:01:24;9.00;70.90
20492;DHT22;10404;51.468;6.762;2023-04-09T01:03:50;9.00;70.90
20492;DHT22;10404;51.468;6.762;2023-04-09T01:09:10;9.00;70.90
20492;DHT22;10404;51.468;6.762;2023-04-09T01:11:50;9.00;70.90
20492;DHT22;10404;51.468;6.762;2023-04-09T01:14:23;9.00;70.70
20492;DHT22;10404;51.468;6.762;2023-04-09T01:16:54;9.00;70.80
20492;DHT22;10404;51.468;6.762;2023-04-09T01:22:04;8.90;70.70
20492;DHT22;10404;51.468;6.762;2023-04-09T01:24:50;8.90;70.80
20492;DHT22;10404;51.468;6.762;2023-04-09T01:27:22;8.90;70.70
20492;DHT22;10404;51.468;6.762;2023-04-09T01:29:50;8.80;70.70
20492;DHT22;10404;51.468;6.762;2023-04-09T01:32:17;8.80;70.80
20492;DHT22;10404;51.468;6.762;2023-04-09T01:34:45;8.80;70.80
20492;DHT22;10404;51.468;6.762;2023-04-09T01:37:12;8.70;70.70
20492;DHT22;10404;51.468;6.762;2023-04-09T01:39:40;8.70;70.80
20492;DHT22;10404;51.468;6.762;2023-04-09T01:42:07;8.60;70.80
20492;DHT22;10404;51.468;6.762;2023-04-09T01:44:38;8.60;70.80
20492;DHT22;10404;51.468;6.762;2023-04-09T01:47:05;8.60;70.80
20492;DHT22;10404;51.468;6.762;2023-04-09T01:49:32;8.60;70.90
20492;DHT22;10404;51.468;6.762;2023-04-09T01:51:57;8.60;70.90
20492;DHT22;10404;51.468;6.762;2023-04-09T01:54:23;8.60;71.00
20492;DHT22;10404;51.468;6.762;2023-04-09T01:56:48;8.50;70.90
20492;DHT22;10404;51.468;6.762;2023-04-09T01:59:14;8.50;71.00
20492;DHT22;10404;51.468;6.762;2023-04-09T02:01:46;8.40;71.10
20492;DHT22;10404;51.468;6.762;2023-04-09T02:04:34;8.40;71.10
20492;DHT22;10404;51.468;6.762;2023-04-09T02:07:09;8.40;71.10
20492;DHT22;10404;51.468;6.762;2023-04-09T02:09:36;8.40;71.20
20492;DHT22;10404;51.468;6.762;2023-04-09T02:12:05;8.30;71.20
20492;DHT22;10404;51.468;6.762;2023-04-09T02:14:32;8.30;71.20
20492;DHT22;10404;51.468;6.762;2023-04-09T02:16:59;8.30;71.30
20492;DHT22;10404;51.468;6.762;2023-04-09T02:19:37;8.20;71.20
20492;DHT22;10404;51.468;6.762;2023-04-09T02:22:04;8.20;71.40
20492;DHT22;10404;51.468;6.762;2023-04-09T02:24:29;8.10;71.40
20492;DHT22;10404;51.468;6.762;2023-04-09T02:26:55;8.10;71.50
20492;DHT22;10404;51.468;6.762;2023-04-09T02:29:20;8.10;71.50
20492;DHT22;10404;51.468;6.762;2023-04-09T02:31:46;8.00;71.50
20492;DHT22;10404;51.468;6.762;2023-04-09T02:34:11;8.00;71.60
20492;DHT22;10404;51.468;6.762;2023-04-09T02:36:37;8.00;71.50
20492;DHT22;10404;51.468;6.762;2023-04-09T02:39:03;8.00;71.60
20492;DHT22;10404;51.468;6.762;2023-04-09T02:41:28;8.00;71.60
20492;DHT22;10404;51.468;6.762;2023-04-09T02:43:54;8.00;71.60
20492;DHT22;10404;51.468;6.762;2023-04-09T02:46:19;7.90;71.70
20492;DHT22;10404;51.468;6.762;2023-04-09T02:48:45;7.90;71.70
20492;DHT22;10404;51.468;6.762;2023-04-09T02:51:10;7.80;71.60
20492;DHT22;10404;51.468;6.762;2023-04-09T02:53:36;7.80;71.60
20492;DHT22;10404;51.468;6.762;2023-04-09T02:56:03;7.80;71.70
20492;DHT22;10404;51.468;6.762;2023-04-09T02:58:29;7.80;71.70
20492;DHT22;10404;51.468;6.762;2023-04-09T03:00:54;7.80;71.80
20492;DHT22;10404;51.468;6.762;2023-04-09T03:03:20;7.70;71.70
20492;DHT22;10404;51.468;6.762;2023-04-09T03:05:46;7.70;71.60
20492;DHT22;10404;51.468;6.762;2023-04-09T03:08:11;7.70;71.70
20492;DHT22;10404;51.468;6.762;2023-04-09T03:10:37;7.60;71.60
20492;DHT22;10404;51.468;6.762;2023-04-09T03:13:02;7.60;71.70
20492;DHT22;10404;51.468;6.762;2023-04-09T03:15:28;7.60;71.70
20492;DHT22;10404;51.468;6.762;2023-04-09T03:17:53;7.60;71.70
20492;DHT22;10404;51.468;6.762;2023-04-09T03:20:19;7.50;71.80
20492;DHT22;10404;51.468;6.762;2023-04-09T03:22:45;7.50;71.70
20492;DHT22;10404;51.468;6.762;2023-04-09T03:25:10;7.50;71.70
20492;DHT22;10404;51.468;6.762;2023-04-09T03:27:36;7.50;71.70
20492;DHT22;10404;51.468;6.762;2023-04-09T03:30:01;7.50;71.70
20492;DHT22;10404;51.468;6.762;2023-04-09T03:32:27;7.40;71.70
20492;DHT22;10404;51.468;6.762;2023-04-09T03:34:53;7.40;71.70
20492;DHT22;10404;51.468;6.762;2023-04-09T03:37:18;7.40;71.60
20492;DHT22;10404;51.468;6.762;2023-04-09T03:39:44;7.40;71.70
20492;DHT22;10404;51.468;6.762;2023-04-09T03:42:09;7.40;71.60
20492;DHT22;10404;51.468;6.762;2023-04-09T03:44:35;7.30;71.60
20492;DHT22;10404;51.468;6.762;2023-04-09T03:47:01;7.30;71.60
20492;DHT22;10404;51.468;6.762;2023-04-09T03:49:27;7.20;71.50
20492;DHT22;10404;51.468;6.762;2023-04-09T03:51:53;7.20;71.50
20492;DHT22;10404;51.468;6.762;2023-04-09T03:54:18;7.20;71.50
20492;DHT22;10404;51.468;6.762;2023-04-09T03:56:44;7.20;71.50
20492;DHT22;10404;51.468;6.762;2023-04-09T03:59:10;7.20;71.50
20492;DHT22;10404;51.468;6.762;2023-04-09T04:01:35;7.20;71.60
20492;DHT22;10404;51.468;6.762;2023-04-09T04:04:01;7.10;71.50
20492;DHT22;10404;51.468;6.762;2023-04-09T04:06:26;7.10;71.50
20492;DHT22;10404;51.468;6.762;2023-04-09T04:08:52;7.00;71.50
20492;DHT22;10404;51.468;6.762;2023-04-09T04:11:18;7.00;71.50
20492;DHT22;10404;51.468;6.762;2023-04-09T04:13:43;7.00;71.50
20492;DHT22;10404;51.468;6.762;2023-04-09T04:16:09;7.00;71.40
20492;DHT22;10404;51.468;6.762;2023-04-09T04:18:35;7.00;71.50
20492;DHT22;10404;51.468;6.762;2023-04-09T04:21:01;7.00;71.50
20492;DHT22;10404;51.468;6.762;2023-04-09T04:23:27;6.90;71.40
20492;DHT22;10404;51.468;6.762;2023-04-09T04:25:52;6.90;71.50
20492;DHT22;10404;51.468;6.762;2023-04-09T04:28:18;6.90;71.50
20492;DHT22;10404;51.468;6.762;2023-04-09T04:30:44;6.90;71.50
20492;DHT22;10404;51.468;6.762;2023-04-09T04:33:09;6.80;71.50
20492;DHT22;10404;51.468;6.762;2023-04-09T04:35:35;6.80;71.60
20492;DHT22;10404;51.468;6.762;2023-04-09T04:38:00;6.80;71.50
20492;DHT22;10404;51.468;6.762;2023-04-09T04:40:26;6.80;71.50
20492;DHT22;10404;51.468;6.762;2023-04-09T04:42:52;6.70;71.50
20492;DHT22;10404;51.468;6.762;2023-04-09T04:45:17;6.70;71.50
20492;DHT22;10404;51.468;6.762;2023-04-09T04:47:43;6.70;71.50
20492;DHT22;10404;51.468;6.762;2023-04-09T04:50:09;6.70;71.50
20492;DHT22;10404;51.468;6.762;2023-04-09T04:52:35;6.60;71.60
20492;DHT22;10404;51.468;6.762;2023-04-09T04:55:01;6.60;71.60
20492;DHT22;10404;51.468;6.762;2023-04-09T04:57:27;6.60;71.60
20492;DHT22;10404;51.468;6.762;2023-04-09T04:59:52;6.60;71.50
20492;DHT22;10404;51.468;6.762;2023-04-09T05:02:18;6.50;71.50
20492;DHT22;10404;51.468;6.762;2023-04-09T05:04:44;6.50;71.60
20492;DHT22;10404;51.468;6.762;2023-04-09T05:07:09;6.50;71.50
20492;DHT22;10404;51.468;6.762;2023-04-09T05:09:35;6.50;71.50
20492;DHT22;10404;51.468;6.762;2023-04-09T05:12:00;6.40;71.50
20492;DHT22;10404;51.468;6.762;2023-04-09T05:14:26;6.40;71.60
20492;DHT22;10404;51.468;6.762;2023-04-09T05:16:52;6.30;71.70
20492;DHT22;10404;51.468;6.762;2023-04-09T05:19:18;6.30;71.60
20492;DHT22;10404;51.468;6.762;2023-04-09T05:21:43;6.30;71.70
20492;DHT22;10404;51.468;6.762;2023-04-09T05:24:09;6.30;71.80
20492;DHT22;10404;51.468;6.762;2023-04-09T05:26:34;6.30;71.90
20492;DHT22;10404;51.468;6.762;2023-04-09T05:29:00;6.20;72.00
20492;DHT22;10404;51.468;6.762;2023-04-09T05:31:26;6.20;71.90
20492;DHT22;10404;51.468;6.762;2023-04-09T05:33:51;6.20;71.90
20492;DHT22;10404;51.468;6.762;2023-04-09T05:36:18;6.20;71.90
20492;DHT22;10404;51.468;6.762;2023-04-09T05:38:45;6.20;71.90
20492;DHT22;10404;51.468;6.762;2023-04-09T05:41:12;6.10;71.90
20492;DHT22;10404;51.468;6.762;2023-04-09T05:43:37;6.10;72.00
20492;DHT22;10404;51.468;6.762;2023-04-09T05:46:03;6.10;72.00
20492;DHT22;10404;51.468;6.762;2023-04-09T05:48:29;6.10;72.10
20492;DHT22;10404;51.468;6.762;2023-04-09T05:50:55;6.10;72.10
20492;DHT22;10404;51.468;6.762;2023-04-09T05:53:21;6.10;72.10
20492;DHT22;10404;51.468;6.762;2023-04-09T05:55:47;6.10;72.10
20492;DHT22;10404;51.468;6.762;2023-04-09T05:58:16;6.10;72.00
20492;DHT22;10404;51.468;6.762;2023-04-09T06:00:43;6.10;71.80
20492;DHT22;10404;51.468;6.762;2023-04-09T06:03:09;6.10;71.70
20492;DHT22;10404;51.468;6.762;2023-04-09T06:05:34;6.10;71.60
20492;DHT22;10404;51.468;6.762;2023-04-09T06:08:00;6.20;71.60
20492;DHT22;10404;51.468;6.762;2023-04-09T06:10:26;6.20;71.50
20492;DHT22;10404;51.468;6.762;2023-04-09T06:12:52;6.30;71.70
20492;DHT22;10404;51.468;6.762;2023-04-09T06:15:18;6.30;71.60
20492;DHT22;10404;51.468;6.762;2023-04-09T06:17:43;6.40;71.40
20492;DHT22;10404;51.468;6.762;2023-04-09T06:20:09;6.50;71.30
20492;DHT22;10404;51.468;6.762;2023-04-09T06:22:35;6.50;71.20
20492;DHT22;10404;51.468;6.762;2023-04-09T06:25:01;6.70;71.00
20492;DHT22;10404;51.468;6.762;2023-04-09T06:27:27;6.70;70.80
20492;DHT22;10404;51.468;6.762;2023-04-09T06:29:52;6.80;70.60
20492;DHT22;10404;51.468;6.762;2023-04-09T06:32:18;6.90;70.40
20492;DHT22;10404;51.468;6.762;2023-04-09T06:34:43;7.00;70.20
20492;DHT22;10404;51.468;6.762;2023-04-09T06:37:09;7.20;70.00
20492;DHT22;10404;51.468;6.762;2023-04-09T06:39:35;7.30;69.70
20492;DHT22;10404;51.468;6.762;2023-04-09T06:42:00;7.40;69.50
20492;DHT22;10404;51.468;6.762;2023-04-09T06:44:28;7.50;69.20
20492;DHT22;10404;51.468;6.762;2023-04-09T06:46:54;7.60;69.00
20492;DHT22;10404;51.468;6.762;2023-04-09T06:49:20;7.80;68.80
20492;DHT22;10404;51.468;6.762;2023-04-09T06:51:46;7.90;68.60
20492;DHT22;10404;51.468;6.762;2023-04-09T06:54:11;8.00;68.40
20492;DHT22;10404;51.468;6.762;2023-04-09T06:56:37;8.10;68.10
20492;DHT22;10404;51.468;6.762;2023-04-09T06:59:02;8.30;67.80
20492;DHT22;10404;51.468;6.762;2023-04-09T07:01:28;8.40;67.70
20492;DHT22;10404;51.468;6.762;2023-04-09T07:03:53;8.50;67.40
20492;DHT22;10404;51.468;6.762;2023-04-09T07:06:19;8.60;67.30
20492;DHT22;10404;51.468;6.762;2023-04-09T07:08:45;8.80;67.10
20492;DHT22;10404;51.468;6.762;2023-04-09T07:11:11;8.90;67.00
20492;DHT22;10404;51.468;6.762;2023-04-09T07:13:37;9.00;66.80
20492;DHT22;10404;51.468;6.762;2023-04-09T07:16:02;9.20;66.50
20492;DHT22;10404;51.468;6.762;2023-04-09T07:18:29;9.40;66.20
20492;DHT22;10404;51.468;6.762;2023-04-09T07:20:55;9.40;65.90
20492;DHT22;10404;51.468;6.762;2023-04-09T07:23:21;9.50;65.70
20492;DHT22;10404;51.468;6.762;2023-04-09T07:25:47;9.60;65.50
20492;DHT22;10404;51.468;6.762;2023-04-09T07:28:12;9.80;65.40
20492;DHT22;10404;51.468;6.762;2023-04-09T07:30:38;9.90;65.20
20492;DHT22;10404;51.468;6.762;2023-04-09T07:33:04;10.00;65.10
20492;DHT22;10404;51.468;6.762;2023-04-09T07:35:30;10.10;64.90
20492;DHT22;10404;51.468;6.762;2023-04-09T07:37:57;10.30;64.70
20492;DHT22;10404;51.468;6.762;2023-04-09T07:40:23;10.40;64.50
20492;DHT22;10404;51.468;6.762;2023-04-09T07:42:48;10.50;64.10
20492;DHT22;10404;51.468;6.762;2023-04-09T07:45:15;10.70;63.80
20492;DHT22;10404;51.468;6.762;2023-04-09T07:47:41;10.80;63.60
20492;DHT22;10404;51.468;6.762;2023-04-09T07:50:07;10.90;63.40
20492;DHT22;10404;51.468;6.762;2023-04-09T07:52:33;11.00;63.20
20492;DHT22;10404;51.468;6.762;2023-04-09T07:54:59;11.10;63.20
20492;DHT22;10404;51.468;6.762;2023-04-09T07:57:24;11.30;62.80
20492;DHT22;10404;51.468;6.762;2023-04-09T07:59:52;11.50;62.50
20492;DHT22;10404;51.468;6.762;2023-04-09T08:02:18;11.50;62.40
20492;DHT22;10404;51.468;6.762;2023-04-09T08:04:43;11.70;62.00
20492;DHT22;10404;51.468;6.762;2023-04-09T08:07:09;11.80;62.00
20492;DHT22;10404;51.468;6.762;2023-04-09T08:09:36;11.90;61.80
20492;DHT22;10404;51.468;6.762;2023-04-09T08:12:02;11.90;61.90
20492;DHT22;10404;51.468;6.762;2023-04-09T08:14:28;12.10;61.70
20492;DHT22;10404;51.468;6.762;2023-04-09T08:16:53;12.20;61.50
20492;DHT22;10404;51.468;6.762;2023-04-09T08:19:19;12.30;61.40
20492;DHT22;10404;51.468;6.762;2023-04-09T08:21:45;12.40;61.10
20492;DHT22;10404;51.468;6.762;2023-04-09T08:24:13;12.50;60.60
20492;DHT22;10404;51.468;6.762;2023-04-09T08:26:39;12.50;60.80
20492;DHT22;10404;51.468;6.762;2023-04-09T08:29:06;12.70;60.80
20492;DHT22;10404;51.468;6.762;2023-04-09T08:31:32;12.70;60.80
20492;DHT22;10404;51.468;6.762;2023-04-09T08:33:58;12.90;60.20
20492;DHT22;10404;51.468;6.762;2023-04-09T08:36:24;12.90;59.90
20492;DHT22;10404;51.468;6.762;2023-04-09T08:38:50;13.10;59.80
20492;DHT22;10404;51.468;6.762;2023-04-09T08:41:24;13.20;59.00
20492;DHT22;10404;51.468;6.762;2023-04-09T08:43:51;13.30;59.10
20492;DHT22;10404;51.468;6.762;2023-04-09T08:46:18;13.30;59.10
20492;DHT22;10404;51.468;6.762;2023-04-09T08:48:44;13.50;59.10
20492;DHT22;10404;51.468;6.762;2023-04-09T08:51:14;13.50;59.50
20492;DHT22;10404;51.468;6.762;2023-04-09T08:53:45;13.50;59.30
20492;DHT22;10404;51.468;6.762;2023-04-09T08:56:15;13.60;58.80
20492;DHT22;10404;51.468;6.762;2023-04-09T08:58:45;13.60;58.90
20492;DHT22;10404;51.468;6.762;2023-04-09T09:01:30;13.70;58.70
20492;DHT22;10404;51.468;6.762;2023-04-09T09:04:03;13.80;59.10
20492;DHT22;10404;51.468;6.762;2023-04-09T09:06:31;13.90;59.20
20492;DHT22;10404;51.468;6.762;2023-04-09T09:11:29;13.90;59.00
20492;DHT22;10404;51.468;6.762;2023-04-09T09:14:00;14.00;59.20
20492;DHT22;10404;51.468;6.762;2023-04-09T09:16:25;14.00;59.20
20492;DHT22;10404;51.468;6.762;2023-04-09T09:18:51;14.10;59.20
20492;DHT22;10404;51.468;6.762;2023-04-09T09:21:17;14.10;59.70
20492;DHT22;10404;51.468;6.762;2023-04-09T09:23:44;14.20;59.00
20492;DHT22;10404;51.468;6.762;2023-04-09T09:26:13;14.30;58.70
20492;DHT22;10404;51.468;6.762;2023-04-09T09:28:40;14.40;58.60
20492;DHT22;10404;51.468;6.762;2023-04-09T09:31:10;14.50;58.00
20492;DHT22;10404;51.468;6.762;2023-04-09T09:33:36;14.60;57.50
20492;DHT22;10404;51.468;6.762;2023-04-09T09:36:02;14.60;57.80
20492;DHT22;10404;51.468;6.762;2023-04-09T09:38:28;14.60;57.00
20492;DHT22;10404;51.468;6.762;2023-04-09T09:40:54;14.60;56.30
20492;DHT22;10404;51.468;6.762;2023-04-09T09:43:20;14.80;56.90
20492;DHT22;10404;51.468;6.762;2023-04-09T09:45:47;14.90;57.60
20492;DHT22;10404;51.468;6.762;2023-04-09T09:48:13;15.00;57.20
20492;DHT22;10404;51.468;6.762;2023-04-09T09:50:39;15.10;57.00
20492;DHT22;10404;51.468;6.762;2023-04-09T09:53:10;15.20;57.20
20492;DHT22;10404;51.468;6.762;2023-04-09T09:55:38;15.30;56.50
20492;DHT22;10404;51.468;6.762;2023-04-09T09:58:27;15.40;55.90
20492;DHT22;10404;51.468;6.762;2023-04-09T10:00:56;15.40;56.10
20492;DHT22;10404;51.468;6.762;2023-04-09T10:03:26;15.50;56.90
20492;DHT22;10404;51.468;6.762;2023-04-09T10:05:52;15.60;56.30
20492;DHT22;10404;51.468;6.762;2023-04-09T10:08:20;15.80;55.20
20492;DHT22;10404;51.468;6.762;2023-04-09T10:10:46;15.90;55.30
20492;DHT22;10404;51.468;6.762;2023-04-09T10:13:20;16.00;55.00
20492;DHT22;10404;51.468;6.762;2023-04-09T10:15:49;16.10;54.00
20492;DHT22;10404;51.468;6.762;2023-04-09T10:18:17;16.20;53.30
20492;DHT22;10404;51.468;6.762;2023-04-09T10:20:53;16.30;53.40
20492;DHT22;10404;51.468;6.762;2023-04-09T10:23:30;16.40;54.40
20492;DHT22;10404;51.468;6.762;2023-04-09T10:25:56;16.50;54.50
20492;DHT22;10404;51.468;6.762;2023-04-09T10:28:22;16.60;53.70
20492;DHT22;10404;51.468;6.762;2023-04-09T10:30:48;16.70;53.30
20492;DHT22;10404;51.468;6.762;2023-04-09T10:33:15;16.80;52.80
20492;DHT22;10404;51.468;6.762;2023-04-09T10:35:42;16.90;51.50
20492;DHT22;10404;51.468;6.762;2023-04-09T10:38:12;17.00;51.40
20492;DHT22;10404;51.468;6.762;2023-04-09T10:40:46;17.00;51.90
20492;DHT22;10404;51.468;6.762;2023-04-09T10:43:12;16.90;51.60
20492;DHT22;10404;51.468;6.762;2023-04-09T10:45:41;16.90;50.60
20492;DHT22;10404;51.468;6.762;2023-04-09T10:48:11;17.00;50.90
20492;DHT22;10404;51.468;6.762;2023-04-09T10:50:38;17.00;51.40
20492;DHT22;10404;51.468;6.762;2023-04-09T10:53:06;17.10;51.20
20492;DHT22;10404;51.468;6.762;2023-04-09T10:55:47;17.20;51.60
20492;DHT22;10404;51.468;6.762;2023-04-09T10:58:14;17.30;52.60
20492;DHT22;10404;51.468;6.762;2023-04-09T11:00:42;17.40;52.30
20492;DHT22;10404;51.468;6.762;2023-04-09T11:06:07;17.60;52.90
20492;DHT22;10404;51.468;6.762;2023-04-09T11:08:36;17.70;52.30
20492;DHT22;10404;51.468;6.762;2023-04-09T11:11:03;17.80;52.80
20492;DHT22;10404;51.468;6.762;2023-04-09T11:13:30;17.90;52.90
20492;DHT22;10404;51.468;6.762;2023-04-09T11:15:56;18.00;53.10
20492;DHT22;10404;51.468;6.762;2023-04-09T11:18:27;18.10;52.80
20492;DHT22;10404;51.468;6.762;2023-04-09T11:20:57;18.20;51.70
20492;DHT22;10404;51.468;6.762;2023-04-09T11:23:24;18.20;51.90
20492;DHT22;10404;51.468;6.762;2023-04-09T11:25:51;18.30;52.20
20492;DHT22;10404;51.468;6.762;2023-04-09T11:28:17;18.40;52.70
20492;DHT22;10404;51.468;6.762;2023-04-09T11:30:43;18.40;47.00
20492;DHT22;10404;51.468;6.762;2023-04-09T11:33:11;18.20;43.20
20492;DHT22;10404;51.468;6.762;2023-04-09T11:35:36;18.00;41.50
20492;DHT22;10404;51.468;6.762;2023-04-09T11:38:06;17.80;43.70
20492;DHT22;10404;51.468;6.762;2023-04-09T11:40:32;17.80;44.50
20492;DHT22;10404;51.468;6.762;2023-04-09T11:42:58;17.90;45.30
20492;DHT22;10404;51.468;6.762;2023-04-09T11:45:27;18.00;46.00
20492;DHT22;10404;51.468;6.762;2023-04-09T11:47:53;18.10;47.20
20492;DHT22;10404;51.468;6.762;2023-04-09T11:50:20;18.20;47.20
20492;DHT22;10404;51.468;6.762;2023-04-09T11:52:47;18.30;47.70
20492;DHT22;10404;51.468;6.762;2023-04-09T11:55:23;18.30;47.40
20492;DHT22;10404;51.468;6.762;2023-04-09T11:57:51;18.30;46.50
20492;DHT22;10404;51.468;6.762;2023-04-09T12:00:17;18.40;46.80
20492;DHT22;10404;51.468;6.762;2023-04-09T12:02:47;18.50;47.90
20492;DHT22;10404;51.468;6.762;2023-04-09T12:05:21;18.60;48.40
20492;DHT22;10404;51.468;6.762;2023-04-09T12:07:47;18.60;49.50
20492;DHT22;10404;51.468;6.762;2023-04-09T12:10:12;18.70;50.10
20492;DHT22;10404;51.468;6.762;2023-04-09T12:12:42;18.80;50.90
20492;DHT22;10404;51.468;6.762;2023-04-09T12:15:30;18.90;51.00
20492;DHT22;10404;51.468;6.762;2023-04-09T12:17:57;18.90;49.20
20492;DHT22;10404;51.468;6.762;2023-04-09T12:22:57;18.90;45.70
20492;DHT22;10404;51.468;6.762;2023-04-09T12:25:23;19.00;44.00
20492;DHT22;10404;51.468;6.762;2023-04-09T12:27:48;19.00;43.80
20492;DHT22;10404;51.468;6.762;2023-04-09T12:30:14;19.10;46.00
20492;DHT22;10404;51.468;6.762;2023-04-09T12:32:40;19.20;46.00
20492;DHT22;10404;51.468;6.762;2023-04-09T12:35:07;19.30;46.20
20492;DHT22;10404;51.468;6.762;2023-04-09T12:37:33;19.30;46.20
20492;DHT22;10404;51.468;6.762;2023-04-09T12:39:58;19.40;45.00
20492;DHT22;10404;51.468;6.762;2023-04-09T12:42:24;19.40;44.20
20492;DHT22;10404;51.468;6.762;2023-04-09T12:44:50;19.40;43.70
20492;DHT22;10404;51.468;6.762;2023-04-09T12:47:16;19.50;43.40
20492;DHT22;10404;51.468;6.762;2023-04-09T12:49:43;19.60;44.90
20492;DHT22;10404;51.468;6.762;2023-04-09T12:52:11;19.70;46.50
20492;DHT22;10404;51.468;6.762;2023-04-09T12:54:36;19.90;47.20
20492;DHT22;10404;51.468;6.762;2023-04-09T12:57:04;20.00;47.80
20492;DHT22;10404;51.468;6.762;2023-04-09T12:59:30;20.10;48.00
20492;DHT22;10404;51.468;6.762;2023-04-09T13:01:56;20.20;48.30
20492;DHT22;10404;51.468;6.762;2023-04-09T13:04:21;20.30;48.10
20492;DHT22;10404;51.468;6.762;2023-04-09T13:06:47;20.30;47.60
20492;DHT22;10404;51.468;6.762;2023-04-09T13:09:13;20.30;45.50
20492;DHT22;10404;51.468;6.762;2023-04-09T13:11:38;20.30;43.50
20492;DHT22;10404;51.468;6.762;2023-04-09T13:14:05;20.40;44.10
20492;DHT22;10404;51.468;6.762;2023-04-09T13:16:30;20.50;44.40
20492;DHT22;10404;51.468;6.762;2023-04-09T13:18:57;20.50;44.20
20492;DHT22;10404;51.468;6.762;2023-04-09T13:21:23;20.60;44.20
20492;DHT22;10404;51.468;6.762;2023-04-09T13:23:48;20.70;45.60
20492;DHT22;10404;51.468;6.762;2023-04-09T13:26:14;20.80;46.00
20492;DHT22;10404;51.468;6.762;2023-04-09T13:28:40;20.80;46.40
20492;DHT22;10404;51.468;6.762;2023-04-09T13:31:06;20.90;45.20
20492;DHT22;10404;51.468;6.762;2023-04-09T13:33:31;21.00;45.60
20492;DHT22;10404;51.468;6.762;2023-04-09T13:35:57;21.10;45.90
20492;DHT22;10404;51.468;6.762;2023-04-09T13:38:23;21.10;46.30
20492;DHT22;10404;51.468;6.762;2023-04-09T13:40:48;21.10;46.60
20492;DHT22;10404;51.468;6.762;2023-04-09T13:43:14;21.20;47.00
20492;DHT22;10404;51.468;6.762;2023-04-09T13:45:40;21.30;47.30
20492;DHT22;10404;51.468;6.762;2023-04-09T13:48:06;21.20;47.30
20492;DHT22;10404;51.468;6.762;2023-04-09T13:50:32;21.20;44.60
20492;DHT22;10404;51.468;6.762;2023-04-09T13:52:57;21.20;43.50
20492;DHT22;10404;51.468;6.762;2023-04-09T13:55:23;21.10;44.50
20492;DHT22;10404;51.468;6.762;2023-04-09T13:57:49;21.10;44.60
20492;DHT22;10404;51.468;6.762;2023-04-09T14:00:14;21.10;44.90
20492;DHT22;10404;51.468;6.762;2023-04-09T14:02:40;21.10;45.70
20492;DHT22;10404;51.468;6.762;2023-04-09T14:05:06;21.20;45.80
20492;DHT22;10404;51.468;6.762;2023-04-09T14:07:32;21.10;46.10
20492;DHT22;10404;51.468;6.762;2023-04-09T14:09:57;21.10;44.30
20492;DHT22;10404;51.468;6.762;2023-04-09T14:12:23;21.10;43.90
20492;DHT22;10404;51.468;6.762;2023-04-09T14:14:48;21.10;43.90
20492;DHT22;10404;51.468;6.762;2023-04-09T14:17:14;21.20;44.30
20492;DHT22;10404;51.468;6.762;2023-04-09T14:19:40;21.30;44.70
20492;DHT22;10404;51.468;6.762;2023-04-09T14:22:06;21.30;45.20
20492;DHT22;10404;51.468;6.762;2023-04-09T14:24:33;21.30;46.00
20492;DHT22;10404;51.468;6.762;2023-04-09T14:27:05;21.20;46.30
20492;DHT22;10404;51.468;6.762;2023-04-09T14:29:30;21.20;46.90
20492;DHT22;10404;51.468;6.762;2023-04-09T14:31:56;21.10;44.90
20492;DHT22;10404;51.468;6.762;2023-04-09T14:34:22;21.10;42.60
20492;DHT22;10404;51.468;6.762;2023-04-09T14:36:47;21.10;43.10
20492;DHT22;10404;51.468;6.762;2023-04-09T14:39:13;21.10;43.80
20492;DHT22;10404;51.468;6.762;2023-04-09T14:41:38;21.10;44.50
20492;DHT22;10404;51.468;6.762;2023-04-09T14:44:05;21.10;44.70
20492;DHT22;10404;51.468;6.762;2023-04-09T14:46:31;21.20;44.70
20492;DHT22;10404;51.468;6.762;2023-04-09T14:48:56;21.30;45.00
20492;DHT22;10404;51.468;6.762;2023-04-09T14:51:22;21.30;45.20
20492;DHT22;10404;51.468;6.762;2023-04-09T14:53:48;21.40;45.30
20492;DHT22;10404;51.468;6.762;2023-04-09T14:56:13;21.40;45.50
20492;DHT22;10404;51.468;6.762;2023-04-09T14:58:39;21.50;45.60
20492;DHT22;10404;51.468;6.762;2023-04-09T15:01:05;21.50;45.50
20492;DHT22;10404;51.468;6.762;2023-04-09T15:03:30;21.60;45.50
20492;DHT22;10404;51.468;6.762;2023-04-09T15:05:57;21.60;45.50
20492;DHT22;10404;51.468;6.762;2023-04-09T15:08:23;21.70;45.90
20492;DHT22;10404;51.468;6.762;2023-04-09T15:10:48;21.70;45.80
20492;DHT22;10404;51.468;6.762;2023-04-09T15:13:15;21.60;43.30
20492;DHT22;10404;51.468;6.762;2023-04-09T15:15:40;21.60;43.50
20492;DHT22;10404;51.468;6.762;2023-04-09T15:18:08;21.60;43.50
20492;DHT22;10404;51.468;6.762;2023-04-09T15:20:40;21.60;42.90
20492;DHT22;10404;51.468;6.762;2023-04-09T15:23:08;21.60;41.70
20492;DHT22;10404;51.468;6.762;2023-04-09T15:25:34;21.60;41.40
20492;DHT22;10404;51.468;6.762;2023-04-09T15:28:01;21.70;42.00
20492;DHT22;10404;51.468;6.762;2023-04-09T15:30:26;21.70;41.80
20492;DHT22;10404;51.468;6.762;2023-04-09T15:32:52;21.70;42.20
20492;DHT22;10404;51.468;6.762;2023-04-09T15:35:18;21.70;42.60
20492;DHT22;10404;51.468;6.762;2023-04-09T15:37:52;21.70;42.60
20492;DHT22;10404;51.468;6.762;2023-04-09T15:40:18;21.80;42.50
20492;DHT22;10404;51.468;6.762;2023-04-09T15:42:44;21.80;43.00
20492;DHT22;10404;51.468;6.762;2023-04-09T15:45:09;21.90;42.60
20492;DHT22;10404;51.468;6.762;2023-04-09T15:47:35;21.90;41.60